sensor_id;sensor_type;location;lat;lon;timestamp;temperature;humidity
3055;DHT22;1537;52.018;8.542;2023-08-30T00:00:12;14.80;99.90
3055;DHT22;1537;52.018;8.542;2023-08-30T00:03:36;14.80;99.90
3055;DHT22;1537;52.018;8.542;2023-08-30T00:07:00;14.80;99.90
3055;DHT22;1537;52.018;8.542;2023-08-30T00:10:24;14.80;99.90
3055;DHT22;1537;52.018;8.542;2023-08-30T00:13:48;14.70;99.90
3055;DHT22;1537;52.018;8.542;2023-08-30T00:17:14;14.80;99.90
3055;DHT22;1537;52.018;8.542;2023-08-30T00:20:40;14.70;99.90
3055;DHT22;1537;52.018;8.542;2023-08-30T00:24:05;14.70;99.90
3055;DHT22;1537;52.018;8.542;2023-08-30T00:27:29;14.70;99.90
3055;DHT22;1537;52.018;8.542;2023-08-30T00:30:53;14.70;99.90
3055;DHT22;1537;52.018;8.542;2023-08-30T00:34:20;14.70;99.90
3055;DHT22;1537;52.018;8.542;2023-08-30T00:37:44;14.80;99.90
3055;DHT22;1537;52.018;8.542;2023-08-30T00:41:08;14.80;99.90
3055;DHT22;1537;52.018;8.542;2023-08-30T00:44:32;14.90;99.90
3055;DHT22;1537;52.018;8.542;2023-08-30T00:47:56;14.90;99.90
3055;DHT22;1537;52.018;8.542;2023-08-30T00:51:22;14.90;99.90
3055;DHT22;1537;52.018;8.542;2023-08-30T00:54:46;14.90;99.90
3055;DHT22;1537;52.018;8.542;2023-08-30T00:58:11;14.90;99.90
3055;DHT22;1537;52.018;8.542;2023-08-30T01:01:37;14.90;99.90
3055;DHT22;1537;52.018;8.542;2023-08-30T01:05:02;14.90;99.90
3055;DHT22;1537;52.018;8.542;2023-08-30T01:08:30;14.80;99.90
3055;DHT22;1537;52.018;8.542;2023-08-30T01:12:00;14.80;99.90
3055;DHT22;1537;52.018;8.542;2023-08-30T01:15:26;14.80;99.90
3055;DHT22;1537;52.018;8.542;2023-08-30T01:18:53;14.80;99.90
3055;DHT22;1537;52.018;8.542;2023-08-30T01:22:27;14.80;99.90
3055;DHT22;1537;52.018;8.542;2023-08-30T01:29:42;14.80;99.90
3055;DHT22;1537;52.018;8.542;2023-08-30T01:33:08;14.90;99.90
3055;DHT22;1537;52.018;8.542;2023-08-30T01:36:32;14.90;99.90
3055;DHT22;1537;52.018;8.542;2023-08-30T01:39:58;14.90;99.90
3055;DHT22;1537;52.018;8.542;2023-08-30T01:43:23;15.00;99.90
3055;DHT22;1537;52.018;8.542;2023-08-30T01:46:50;15.00;99.90
3055;DHT22;1537;52.018;8.542;2023-08-30T01:50:15;15.00;99.90
3055;DHT22;1537;52.018;8.542;2023-08-30T01:53:39;15.00;99.90
3055;DHT22;1537;52.018;8.542;2023-08-30T01:57:06;15.00;99.90
3055;DHT22;1537;52.018;8.542;2023-08-30T02:00:30;15.10;99.90
3055;DHT22;1537;52.018;8.542;2023-08-30T02:03:55;15.00;99.90
3055;DHT22;1537;52.018;8.542;2023-08-30T02:07:26;15.00;99.90
3055;DHT22;1537;52.018;8.542;2023-08-30T02:10:56;15.00;99.90
3055;DHT22;1537;52.018;8.542;2023-08-30T02:14:21;15.00;99.90
3055;DHT22;1537;52.018;8.542;2023-08-30T02:17:48;15.00;99.90
3055;DHT22;1537;52.018;8.542;2023-08-30T02:21:14;15.00;99.90
3055;DHT22;1537;52.018;8.542;2023-08-30T02:24:38;15.00;99.90
3055;DHT22;1537;52.018;8.542;2023-08-30T02:28:05;15.00;99.90
3055;DHT22;1537;52.018;8.542;2023-08-30T02:31:29;15.00;99.90
3055;DHT22;1537;52.018;8.542;2023-08-30T02:34:54;15.00;99.90
3055;DHT22;1537;52.018;8.542;2023-08-30T02:38:19;15.00;99.90
3055;DHT22;1537;52.018;8.542;2023-08-30T02:41:42;15.00;99.90
3055;DHT22;1537;52.018;8.542;2023-08-30T02:45:08;15.00;99.90
3055;DHT22;1537;52.018;8.542;2023-08-30T02:48:31;14.90;99.90
3055;DHT22;1537;52.018;8.542;2023-08-30T02:51:58;14.90;99.90
3055;DHT22;1537;52.018;8.542;2023-08-30T02:55:23;14.80;99.90
3055;DHT22;1537;52.018;8.542;2023-08-30T02:58:46;14.70;99.90
3055;DHT22;1537;52.018;8.542;2023-08-30T03:02:10;14.70;99.90
3055;DHT22;1537;52.018;8.542;2023-08-30T03:05:35;14.70;99.90
3055;DHT22;1537;52.018;8.542;2023-08-30T03:09:01;14.60;99.90
3055;DHT22;1537;52.018;8.542;2023-08-30T03:12:30;14.60;99.90
3055;DHT22;1537;52.018;8.542;2023-08-30T03:15:54;14.60;99.90
3055;DHT22;1537;52.018;8.542;2023-08-30T03:19:18;14.60;99.90
3055;DHT22;1537;52.018;8.542;2023-08-30T03:22:42;14.60;99.90
3055;DHT22;1537;52.018;8.542;2023-08-30T03:26:11;14.40;99.90
3055;DHT22;1537;52.018;8.542;2023-08-30T03:29:37;14.40;99.90
3055;DHT22;1537;52.018;8.542;2023-08-30T03:33:00;14.40;99.90
3055;DHT22;1537;52.018;8.542;2023-08-30T03:36:25;14.40;99.90
3055;DHT22;1537;52.018;8.542;2023-08-30T03:39:52;14.40;99.90
3055;DHT22;1537;52.018;8.542;2023-08-30T03:43:15;14.40;99.90
3055;DHT22;1537;52.018;8.542;2023-08-30T03:46:41;14.40;99.90
3055;DHT22;1537;52.018;8.542;2023-08-30T03:50:07;14.50;99.90
3055;DHT22;1537;52.018;8.542;2023-08-30T03:53:32;14.50;99.90
3055;DHT22;1537;52.018;8.542;2023-08-30T03:56:56;14.50;99.90
3055;DHT22;1537;52.018;8.542;2023-08-30T04:00:20;14.50;99.90
3055;DHT22;1537;52.018;8.542;2023-08-30T04:03:47;14.40;99.90
3055;DHT22;1537;52.018;8.542;2023-08-30T04:07:11;14.30;99.90
3055;DHT22;1537;52.018;8.542;2023-08-30T04:10:35;14.30;99.90
3055;DHT22;1537;52.018;8.542;2023-08-30T04:14:02;14.20;99.90
3055;DHT22;1537;52.018;8.542;2023-08-30T04:17:27;14.10;99.90
3055;DHT22;1537;52.018;8.542;2023-08-30T04:20:52;14.10;99.90
3055;DHT22;1537;52.018;8.542;2023-08-30T04:24:16;14.00;99.90
3055;DHT22;1537;52.018;8.542;2023-08-30T04:27:40;14.00;99.90
3055;DHT22;1537;52.018;8.542;2023-08-30T04:31:05;14.00;99.90
3055;DHT22;1537;52.018;8.542;2023-08-30T04:34:28;14.00;99.90
3055;DHT22;1537;52.018;8.542;2023-08-30T04:37:54;14.00;99.90
3055;DHT22;1537;52.018;8.542;2023-08-30T04:41:18;13.90;99.90
3055;DHT22;1537;52.018;8.542;2023-08-30T04:44:41;13.90;99.90
3055;DHT22;1537;52.018;8.542;2023-08-30T04:48:08;14.00;99.90
3055;DHT22;1537;52.018;8.542;2023-08-30T04:51:32;13.90;99.90
3055;DHT22;1537;52.018;8.542;2023-08-30T04:54:57;13.90;99.90
3055;DHT22;1537;52.018;8.542;2023-08-30T04:58:22;13.90;99.90
3055;DHT22;1537;52.018;8.542;2023-08-30T05:01:45;13.90;99.90
3055;DHT22;1537;52.018;8.542;2023-08-30T05:05:10;13.90;99.90
3055;DHT22;1537;52.018;8.542;2023-08-30T05:08:33;14.00;99.90
3055;DHT22;1537;52.018;8.542;2023-08-30T05:11:58;14.10;99.90
3055;DHT22;1537;52.018;8.542;2023-08-30T05:19:07;14.30;99.90
3055;DHT22;1537;52.018;8.542;2023-08-30T05:22:31;14.40;99.90
3055;DHT22;1537;52.018;8.542;2023-08-30T05:25:55;14.40;99.90
3055;DHT22;1537;52.018;8.542;2023-08-30T05:29:20;14.50;99.90
3055;DHT22;1537;52.018;8.542;2023-08-30T05:32:43;14.60;99.90
3055;DHT22;1537;52.018;8.542;2023-08-30T05:36:23;14.60;99.90
3055;DHT22;1537;52.018;8.542;2023-08-30T05:39:57;14.70;99.90
3055;DHT22;1537;52.018;8.542;2023-08-30T05:43:20;14.80;99.90
3055;DHT22;1537;52.018;8.542;2023-08-30T05:46:45;14.90;99.90
3055;DHT22;1537;52.018;8.542;2023-08-30T05:50:09;15.00;99.90
3055;DHT22;1537;52.018;8.542;2023-08-30T05:53:33;15.10;99.90
3055;DHT22;1537;52.018;8.542;2023-08-30T05:56:57;15.20;99.90
3055;DHT22;1537;52.018;8.542;2023-08-30T06:00:20;15.20;99.90
3055;DHT22;1537;52.018;8.542;2023-08-30T06:03:45;15.20;99.90
3055;DHT22;1537;52.018;8.542;2023-08-30T06:07:09;15.30;99.90
3055;DHT22;1537;52.018;8.542;2023-08-30T06:10:33;15.30;99.90
3055;DHT22;1537;52.018;8.542;2023-08-30T06:13:56;15.40;99.90
3055;DHT22;1537;52.018;8.542;2023-08-30T06:17:23;15.50;99.90
3055;DHT22;1537;52.018;8.542;2023-08-30T06:20:51;15.70;99.90
3055;DHT22;1537;52.018;8.542;2023-08-30T06:24:15;16.10;99.90
3055;DHT22;1537;52.018;8.542;2023-08-30T06:27:42;16.00;99.90
3055;DHT22;1537;52.018;8.542;2023-08-30T06:31:06;16.10;99.90
3055;DHT22;1537;52.018;8.542;2023-08-30T06:34:30;16.60;99.90
3055;DHT22;1537;52.018;8.542;2023-08-30T06:37:55;17.10;99.90
3055;DHT22;1537;52.018;8.542;2023-08-30T06:41:19;17.40;99.90
3055;DHT22;1537;52.018;8.542;2023-08-30T06:44:43;17.90;99.90
3055;DHT22;1537;52.018;8.542;2023-08-30T06:48:07;18.40;99.90
3055;DHT22;1537;52.018;8.542;2023-08-30T06:51:31;18.80;99.90
3055;DHT22;1537;52.018;8.542;2023-08-30T06:54:56;19.00;99.90
3055;DHT22;1537;52.018;8.542;2023-08-30T06:58:20;19.40;99.90
3055;DHT22;1537;52.018;8.542;2023-08-30T07:01:43;19.20;99.90
3055;DHT22;1537;52.018;8.542;2023-08-30T07:05:08;18.90;99.90
3055;DHT22;1537;52.018;8.542;2023-08-30T07:08:31;18.20;99.90
3055;DHT22;1537;52.018;8.542;2023-08-30T07:11:57;18.30;99.90
3055;DHT22;1537;52.018;8.542;2023-08-30T07:15:21;18.40;99.90
3055;DHT22;1537;52.018;8.542;2023-08-30T07:18:44;18.60;99.90
3055;DHT22;1537;52.018;8.542;2023-08-30T07:22:08;18.90;99.90
3055;DHT22;1537;52.018;8.542;2023-08-30T07:25:32;19.00;99.90
3055;DHT22;1537;52.018;8.542;2023-08-30T07:28:57;19.20;99.90
3055;DHT22;1537;52.018;8.542;2023-08-30T07:32:21;19.10;99.90
3055;DHT22;1537;52.018;8.542;2023-08-30T07:35:44;19.60;99.90
3055;DHT22;1537;52.018;8.542;2023-08-30T07:39:08;19.20;99.90
3055;DHT22;1537;52.018;8.542;2023-08-30T07:42:33;19.40;99.90
3055;DHT22;1537;52.018;8.542;2023-08-30T07:45:59;20.10;99.90
3055;DHT22;1537;52.018;8.542;2023-08-30T07:49:23;21.00;99.90
3055;DHT22;1537;52.018;8.542;2023-08-30T07:52:47;21.10;99.90
3055;DHT22;1537;52.018;8.542;2023-08-30T07:56:10;21.70;99.90
3055;DHT22;1537;52.018;8.542;2023-08-30T07:59:35;22.40;99.90
3055;DHT22;1537;52.018;8.542;2023-08-30T08:03:00;23.50;99.90
3055;DHT22;1537;52.018;8.542;2023-08-30T08:06:24;24.10;99.90
3055;DHT22;1537;52.018;8.542;2023-08-30T08:09:48;23.90;99.90
3055;DHT22;1537;52.018;8.542;2023-08-30T08:13:12;23.70;99.90
3055;DHT22;1537;52.018;8.542;2023-08-30T08:16:37;23.80;99.90
3055;DHT22;1537;52.018;8.542;2023-08-30T08:20:03;23.50;99.90
3055;DHT22;1537;52.018;8.542;2023-08-30T08:23:27;23.00;99.90
3055;DHT22;1537;52.018;8.542;2023-08-30T08:26:51;23.60;99.90
3055;DHT22;1537;52.018;8.542;2023-08-30T08:30:15;23.40;99.90
3055;DHT22;1537;52.018;8.542;2023-08-30T08:33:38;24.00;99.90
3055;DHT22;1537;52.018;8.542;2023-08-30T08:37:03;24.80;99.90
3055;DHT22;1537;52.018;8.542;2023-08-30T08:40:27;26.00;99.90
3055;DHT22;1537;52.018;8.542;2023-08-30T08:44:05;25.70;99.90
3055;DHT22;1537;52.018;8.542;2023-08-30T08:47:30;24.60;99.90
3055;DHT22;1537;52.018;8.542;2023-08-30T08:50:54;24.60;99.90
3055;DHT22;1537;52.018;8.542;2023-08-30T08:54:20;24.60;99.90
3055;DHT22;1537;52.018;8.542;2023-08-30T08:57:45;25.50;99.90
3055;DHT22;1537;52.018;8.542;2023-08-30T09:01:11;26.70;98.80
3055;DHT22;1537;52.018;8.542;2023-08-30T09:04:55;26.80;97.80
3055;DHT22;1537;52.018;8.542;2023-08-30T09:08:21;27.10;97.70
3055;DHT22;1537;52.018;8.542;2023-08-30T09:11:46;26.10;98.20
3055;DHT22;1537;52.018;8.542;2023-08-30T09:15:13;27.10;97.30
3055;DHT22;1537;52.018;8.542;2023-08-30T09:18:40;28.40;95.80
3055;DHT22;1537;52.018;8.542;2023-08-30T09:22:10;29.30;93.30
3055;DHT22;1537;52.018;8.542;2023-08-30T09:25:42;29.40;93.20
3055;DHT22;1537;52.018;8.542;2023-08-30T09:29:08;29.60;91.90
3055;DHT22;1537;52.018;8.542;2023-08-30T09:32:32;28.30;91.80
3055;DHT22;1537;52.018;8.542;2023-08-30T09:35:55;26.60;93.40
3055;DHT22;1537;52.018;8.542;2023-08-30T09:39:20;25.70;94.60
3055;DHT22;1537;52.018;8.542;2023-08-30T09:42:43;26.20;93.90
3055;DHT22;1537;52.018;8.542;2023-08-30T09:46:18;27.50;93.10
3055;DHT22;1537;52.018;8.542;2023-08-30T09:49:43;27.40;93.10
3055;DHT22;1537;52.018;8.542;2023-08-30T09:53:08;27.80;92.40
3055;DHT22;1537;52.018;8.542;2023-08-30T09:56:35;27.60;92.60
3055;DHT22;1537;52.018;8.542;2023-08-30T09:59:59;28.40;91.30
3055;DHT22;1537;52.018;8.542;2023-08-30T10:03:27;29.30;90.80
3055;DHT22;1537;52.018;8.542;2023-08-30T10:06:56;28.10;91.50
3055;DHT22;1537;52.018;8.542;2023-08-30T10:10:20;27.20;91.40
3055;DHT22;1537;52.018;8.542;2023-08-30T10:13:45;25.90;90.50
3055;DHT22;1537;52.018;8.542;2023-08-30T10:17:12;25.20;91.80
3055;DHT22;1537;52.018;8.542;2023-08-30T10:20:39;26.50;91.30
3055;DHT22;1537;52.018;8.542;2023-08-30T10:24:05;26.50;89.80
3055;DHT22;1537;52.018;8.542;2023-08-30T10:27:49;25.40;91.00
3055;DHT22;1537;52.018;8.542;2023-08-30T10:31:13;24.40;92.10
3055;DHT22;1537;52.018;8.542;2023-08-30T10:34:47;23.10;93.10
3055;DHT22;1537;52.018;8.542;2023-08-30T10:38:12;22.40;93.70
3055;DHT22;1537;52.018;8.542;2023-08-30T10:41:36;22.00;94.30
3055;DHT22;1537;52.018;8.542;2023-08-30T10:45:01;21.70;94.50
3055;DHT22;1537;52.018;8.542;2023-08-30T10:48:36;21.20;94.90
3055;DHT22;1537;52.018;8.542;2023-08-30T10:52:12;21.00;95.30
3055;DHT22;1537;52.018;8.542;2023-08-30T10:55:35;20.90;95.70
3055;DHT22;1537;52.018;8.542;2023-08-30T10:59:02;21.00;95.80
3055;DHT22;1537;52.018;8.542;2023-08-30T11:02:25;21.00;96.10
3055;DHT22;1537;52.018;8.542;2023-08-30T11:05:49;21.10;95.80
3055;DHT22;1537;52.018;8.542;2023-08-30T11:09:16;21.10;95.80
3055;DHT22;1537;52.018;8.542;2023-08-30T11:12:41;21.10;95.70
3055;DHT22;1537;52.018;8.542;2023-08-30T11:16:05;21.00;95.70
3055;DHT22;1537;52.018;8.542;2023-08-30T11:19:29;20.80;96.20
3055;DHT22;1537;52.018;8.542;2023-08-30T11:22:55;20.60;96.30
3055;DHT22;1537;52.018;8.542;2023-08-30T11:26:20;20.40;96.60
3055;DHT22;1537;52.018;8.542;2023-08-30T11:29:44;20.30;96.90
3055;DHT22;1537;52.018;8.542;2023-08-30T11:33:08;20.40;96.30
3055;DHT22;1537;52.018;8.542;2023-08-30T11:36:35;20.40;96.50
3055;DHT22;1537;52.018;8.542;2023-08-30T11:39:59;20.40;96.20
3055;DHT22;1537;52.018;8.542;2023-08-30T11:43:25;20.30;96.60
3055;DHT22;1537;52.018;8.542;2023-08-30T11:46:57;20.70;96.20
3055;DHT22;1537;52.018;8.542;2023-08-30T11:50:21;20.70;96.10
3055;DHT22;1537;52.018;8.542;2023-08-30T11:53:47;20.80;96.20
3055;DHT22;1537;52.018;8.542;2023-08-30T11:57:12;21.50;95.50
3055;DHT22;1537;52.018;8.542;2023-08-30T12:00:37;21.80;95.40
3055;DHT22;1537;52.018;8.542;2023-08-30T12:04:09;21.40;94.40
3055;DHT22;1537;52.018;8.542;2023-08-30T12:07:33;21.50;94.80
3055;DHT22;1537;52.018;8.542;2023-08-30T12:11:03;21.30;94.80
3055;DHT22;1537;52.018;8.542;2023-08-30T12:14:33;21.10;95.40
3055;DHT22;1537;52.018;8.542;2023-08-30T12:18:06;20.80;94.30
3055;DHT22;1537;52.018;8.542;2023-08-30T12:21:39;20.50;95.10
3055;DHT22;1537;52.018;8.542;2023-08-30T12:25:04;20.30;95.80
3055;DHT22;1537;52.018;8.542;2023-08-30T12:28:28;20.30;95.90
3055;DHT22;1537;52.018;8.542;2023-08-30T12:31:52;20.20;96.00
3055;DHT22;1537;52.018;8.542;2023-08-30T12:35:17;20.20;96.10
3055;DHT22;1537;52.018;8.542;2023-08-30T12:38:41;20.30;97.00
3055;DHT22;1537;52.018;8.542;2023-08-30T12:42:05;20.40;97.90
3055;DHT22;1537;52.018;8.542;2023-08-30T12:45:29;20.30;97.40
3055;DHT22;1537;52.018;8.542;2023-08-30T12:48:53;20.20;97.40
3055;DHT22;1537;52.018;8.542;2023-08-30T12:52:22;19.90;98.30
3055;DHT22;1537;52.018;8.542;2023-08-30T12:55:45;19.60;99.00
3055;DHT22;1537;52.018;8.542;2023-08-30T12:59:09;19.30;99.90
3055;DHT22;1537;52.018;8.542;2023-08-30T13:02:33;19.10;99.90
3055;DHT22;1537;52.018;8.542;2023-08-30T13:05:57;18.90;99.90
3055;DHT22;1537;52.018;8.542;2023-08-30T13:09:23;19.00;99.90
3055;DHT22;1537;52.018;8.542;2023-08-30T13:12:46;19.10;99.90
3055;DHT22;1537;52.018;8.542;2023-08-30T13:16:10;19.10;99.90
3055;DHT22;1537;52.018;8.542;2023-08-30T13:19:34;19.10;99.90
3055;DHT22;1537;52.018;8.542;2023-08-30T13:22:58;19.10;99.90
3055;DHT22;1537;52.018;8.542;2023-08-30T13:26:23;19.20;99.90
3055;DHT22;1537;52.018;8.542;2023-08-30T13:29:46;19.20;99.90
3055;DHT22;1537;52.018;8.542;2023-08-30T13:33:11;19.10;99.90
3055;DHT22;1537;52.018;8.542;2023-08-30T13:36:35;19.00;99.90
3055;DHT22;1537;52.018;8.542;2023-08-30T13:39:59;18.40;99.90
3055;DHT22;1537;52.018;8.542;2023-08-30T13:43:24;18.00;99.90
3055;DHT22;1537;52.018;8.542;2023-08-30T13:46:47;17.70;99.90
3055;DHT22;1537;52.018;8.542;2023-08-30T13:50:11;17.60;99.90
3055;DHT22;1537;52.018;8.542;2023-08-30T13:53:34;17.30;99.90
3055;DHT22;1537;52.018;8.542;2023-08-30T13:56:58;17.00;99.90
3055;DHT22;1537;52.018;8.542;2023-08-30T14:00:23;16.70;99.90
3055;DHT22;1537;52.018;8.542;2023-08-30T14:03:47;16.60;99.90
3055;DHT22;1537;52.018;8.542;2023-08-30T14:07:11;16.50;99.90
3055;DHT22;1537;52.018;8.542;2023-08-30T14:10:35;16.50;99.90
3055;DHT22;1537;52.018;8.542;2023-08-30T14:13:59;16.40;99.90
3055;DHT22;1537;52.018;8.542;2023-08-30T14:17:25;16.40;99.90
3055;DHT22;1537;52.018;8.542;2023-08-30T14:20:49;16.40;99.90
3055;DHT22;1537;52.018;8.542;2023-08-30T14:24:12;16.50;99.90
3055;DHT22;1537;52.018;8.542;2023-08-30T14:27:36;16.60;99.90
3055;DHT22;1537;52.018;8.542;2023-08-30T14:31:00;16.60;99.90
3055;DHT22;1537;52.018;8.542;2023-08-30T14:34:25;16.70;99.90
3055;DHT22;1537;52.018;8.542;2023-08-30T14:37:50;16.90;99.90
3055;DHT22;1537;52.018;8.542;2023-08-30T14:41:14;16.60;99.90
3055;DHT22;1537;52.018;8.542;2023-08-30T14:44:39;16.40;99.90
3055;DHT22;1537;52.018;8.542;2023-08-30T14:48:04;16.30;99.90
3055;DHT22;1537;52.018;8.542;2023-08-30T14:51:30;16.20;99.90
3055;DHT22;1537;52.018;8.542;2023-08-30T14:54:55;16.00;99.90
3055;DHT22;1537;52.018;8.542;2023-08-30T14:58:27;16.00;99.90
3055;DHT22;1537;52.018;8.542;2023-08-30T15:01:51;15.80;99.90
3055;DHT22;1537;52.018;8.542;2023-08-30T15:05:15;15.90;99.90
3055;DHT22;1537;52.018;8.542;2023-08-30T15:08:40;16.10;99.90
3055;DHT22;1537;52.018;8.542;2023-08-30T15:12:05;16.20;99.90
3055;DHT22;1537;52.018;8.542;2023-08-30T15:15:29;16.30;99.90
3055;DHT22;1537;52.018;8.542;2023-08-30T15:18:53;16.40;99.90
3055;DHT22;1537;52.018;8.542;2023-08-30T15:22:17;16.40;99.90
3055;DHT22;1537;52.018;8.542;2023-08-30T15:25:43;16.40;99.90
3055;DHT22;1537;52.018;8.542;2023-08-30T15:29:06;16.50;99.90
3055;DHT22;1537;52.018;8.542;2023-08-30T15:32:30;16.30;99.90
3055;DHT22;1537;52.018;8.542;2023-08-30T15:35:57;16.20;99.90
3055;DHT22;1537;52.018;8.542;2023-08-30T15:39:21;16.00;99.90
3055;DHT22;1537;52.018;8.542;2023-08-30T15:42:46;16.00;99.90
3055;DHT22;1537;52.018;8.542;2023-08-30T15:46:11;15.90;99.90
3055;DHT22;1537;52.018;8.542;2023-08-30T15:49:35;15.90;99.90
3055;DHT22;1537;52.018;8.542;2023-08-30T15:53:01;15.90;99.90
3055;DHT22;1537;52.018;8.542;2023-08-30T15:56:25;15.80;99.90
3055;DHT22;1537;52.018;8.542;2023-08-30T15:59:50;15.80;99.90
3055;DHT22;1537;52.018;8.542;2023-08-30T16:03:15;15.90;99.90
3055;DHT22;1537;52.018;8.542;2023-08-30T16:06:39;15.70;99.90
3055;DHT22;1537;52.018;8.542;2023-08-30T16:10:06;15.60;99.90
3055;DHT22;1537;52.018;8.542;2023-08-30T16:13:29;15.60;99.90
3055;DHT22;1537;52.018;8.542;2023-08-30T16:16:54;15.60;99.90
3055;DHT22;1537;52.018;8.542;2023-08-30T16:20:19;15.70;99.90
3055;DHT22;1537;52.018;8.542;2023-08-30T16:23:43;15.70;99.90
3055;DHT22;1537;52.018;8.542;2023-08-30T16:27:06;15.70;99.90
3055;DHT22;1537;52.018;8.542;2023-08-30T16:30:30;15.70;99.90
3055;DHT22;1537;52.018;8.542;2023-08-30T16:33:56;15.70;99.90
3055;DHT22;1537;52.018;8.542;2023-08-30T16:37:20;15.80;99.90
3055;DHT22;1537;52.018;8.542;2023-08-30T16:40:43;15.80;99.90
3055;DHT22;1537;52.018;8.542;2023-08-30T16:44:07;15.60;99.90
3055;DHT22;1537;52.018;8.542;2023-08-30T16:47:31;15.40;99.90
3055;DHT22;1537;52.018;8.542;2023-08-30T16:51:02;15.30;99.90
3055;DHT22;1537;52.018;8.542;2023-08-30T16:54:28;15.30;99.90
3055;DHT22;1537;52.018;8.542;2023-08-30T16:57:52;15.30;99.90
3055;DHT22;1537;52.018;8.542;2023-08-30T17:01:15;15.30;99.90
3055;DHT22;1537;52.018;8.542;2023-08-30T17:04:39;15.20;99.90
3055;DHT22;1537;52.018;8.542;2023-08-30T17:08:05;15.20;99.90
3055;DHT22;1537;52.018;8.542;2023-08-30T17:11:32;15.00;99.90
3055;DHT22;1537;52.018;8.542;2023-08-30T17:14:56;15.00;99.90
3055;DHT22;1537;52.018;8.542;2023-08-30T17:18:20;14.80;99.90
3055;DHT22;1537;52.018;8.542;2023-08-30T17:21:44;14.80;99.90
3055;DHT22;1537;52.018;8.542;2023-08-30T17:25:10;14.80;99.90
3055;DHT22;1537;52.018;8.542;2023-08-30T17:28:35;14.70;99.90
3055;DHT22;1537;52.018;8.542;2023-08-30T17:32:00;14.60;99.90
3055;DHT22;1537;52.018;8.542;2023-08-30T17:35:26;14.60;99.90
3055;DHT22;1537;52.018;8.542;2023-08-30T17:38:52;14.50;99.90
3055;DHT22;1537;52.018;8.542;2023-08-30T17:42:17;14.40;99.90
3055;DHT22;1537;52.018;8.542;2023-08-30T17:45:41;14.40;99.90
3055;DHT22;1537;52.018;8.542;2023-08-30T17:49:10;14.30;99.90
3055;DHT22;1537;52.018;8.542;2023-08-30T17:52:35;14.30;99.90
3055;DHT22;1537;52.018;8.542;2023-08-30T17:56:00;14.30;99.90
3055;DHT22;1537;52.018;8.542;2023-08-30T17:59:25;14.30;99.90
3055;DHT22;1537;52.018;8.542;2023-08-30T18:02:49;14.20;99.90
3055;DHT22;1537;52.018;8.542;2023-08-30T18:06:13;14.10;99.90
3055;DHT22;1537;52.018;8.542;2023-08-30T18:09:37;14.20;99.90
3055;DHT22;1537;52.018;8.542;2023-08-30T18:13:03;14.20;99.90
3055;DHT22;1537;52.018;8.542;2023-08-30T18:16:29;14.30;99.90
3055;DHT22;1537;52.018;8.542;2023-08-30T18:19:54;14.40;99.90
3055;DHT22;1537;52.018;8.542;2023-08-30T18:23:21;14.40;99.90
3055;DHT22;1537;52.018;8.542;2023-08-30T18:26:45;14.40;99.90
3055;DHT22;1537;52.018;8.542;2023-08-30T18:30:10;14.40;99.90
3055;DHT22;1537;52.018;8.542;2023-08-30T18:33:36;14.40;99.90
3055;DHT22;1537;52.018;8.542;2023-08-30T18:37:01;14.40;99.90
3055;DHT22;1537;52.018;8.542;2023-08-30T18:40:27;14.50;99.90
3055;DHT22;1537;52.018;8.542;2023-08-30T18:43:51;14.50;99.90
3055;DHT22;1537;52.018;8.542;2023-08-30T18:47:15;14.50;99.90
3055;DHT22;1537;52.018;8.542;2023-08-30T18:50:45;14.50;99.90
3055;DHT22;1537;52.018;8.542;2023-08-30T18:54:10;14.60;99.90
3055;DHT22;1537;52.018;8.542;2023-08-30T18:57:36;14.60;99.90
3055;DHT22;1537;52.018;8.542;2023-08-30T19:01:00;14.60;99.90
3055;DHT22;1537;52.018;8.542;2023-08-30T19:04:27;14.50;99.90
3055;DHT22;1537;52.018;8.542;2023-08-30T19:07:52;14.50;99.90
3055;DHT22;1537;52.018;8.542;2023-08-30T19:11:16;14.60;99.90
3055;DHT22;1537;52.018;8.542;2023-08-30T19:14:40;14.50;99.90
3055;DHT22;1537;52.018;8.542;2023-08-30T19:18:04;14.50;99.90
3055;DHT22;1537;52.018;8.542;2023-08-30T19:21:31;14.50;99.90
3055;DHT22;1537;52.018;8.542;2023-08-30T19:24:57;14.40;99.90
3055;DHT22;1537;52.018;8.542;2023-08-30T19:28:22;14.40;99.90
3055;DHT22;1537;52.018;8.542;2023-08-30T19:31:47;14.40;99.90
3055;DHT22;1537;52.018;8.542;2023-08-30T19:35:10;14.30;99.90
3055;DHT22;1537;52.018;8.542;2023-08-30T19:38:36;14.30;99.90
3055;DHT22;1537;52.018;8.542;2023-08-30T19:42:01;14.30;99.90
3055;DHT22;1537;52.018;8.542;2023-08-30T19:45:26;14.20;99.90
3055;DHT22;1537;52.018;8.542;2023-08-30T19:48:50;14.20;99.90
3055;DHT22;1537;52.018;8.542;2023-08-30T19:52:14;14.10;99.90
3055;DHT22;1537;52.018;8.542;2023-08-30T19:55:38;14.10;99.90
3055;DHT22;1537;52.018;8.542;2023-08-30T19:59:03;14.00;99.90
3055;DHT22;1537;52.018;8.542;2023-08-30T20:02:26;14.10;99.90
3055;DHT22;1537;52.018;8.542;2023-08-30T20:05:51;14.10;99.90
3055;DHT22;1537;52.018;8.542;2023-08-30T20:09:15;14.10;99.90
3055;DHT22;1537;52.018;8.542;2023-08-30T20:12:40;14.10;99.90
3055;DHT22;1537;52.018;8.542;2023-08-30T20:16:05;14.10;99.90
3055;DHT22;1537;52.018;8.542;2023-08-30T20:19:31;14.20;99.90
3055;DHT22;1537;52.018;8.542;2023-08-30T20:22:55;14.20;99.90
3055;DHT22;1537;52.018;8.542;2023-08-30T20:26:18;14.20;99.90
3055;DHT22;1537;52.018;8.542;2023-08-30T20:29:43;14.00;99.90
3055;DHT22;1537;52.018;8.542;2023-08-30T20:33:08;13.90;99.90
3055;DHT22;1537;52.018;8.542;2023-08-30T20:36:32;13.90;99.90
3055;DHT22;1537;52.018;8.542;2023-08-30T20:40:02;13.80;99.90
3055;DHT22;1537;52.018;8.542;2023-08-30T20:43:27;13.80;99.90
3055;DHT22;1537;52.018;8.542;2023-08-30T20:46:52;13.80;99.90
3055;DHT22;1537;52.018;8.542;2023-08-30T20:50:17;13.70;99.90
3055;DHT22;1537;52.018;8.542;2023-08-30T20:53:41;13.70;99.90
3055;DHT22;1537;52.018;8.542;2023-08-30T20:57:08;13.70;99.90
3055;DHT22;1537;52.018;8.542;2023-08-30T21:00:32;13.60;99.90
3055;DHT22;1537;52.018;8.542;2023-08-30T21:03:56;13.60;99.90
3055;DHT22;1537;52.018;8.542;2023-08-30T21:07:22;13.60;99.90
3055;DHT22;1537;52.018;8.542;2023-08-30T21:10:49;13.50;99.90
3055;DHT22;1537;52.018;8.542;2023-08-30T21:14:13;13.50;99.90
3055;DHT22;1537;52.018;8.542;2023-08-30T21:17:38;13.50;99.90
3055;DHT22;1537;52.018;8.542;2023-08-30T21:21:02;13.50;99.90
3055;DHT22;1537;52.018;8.542;2023-08-30T21:24:27;13.40;99.90
3055;DHT22;1537;52.018;8.542;2023-08-30T21:27:53;13.40;99.90
3055;DHT22;1537;52.018;8.542;2023-08-30T21:31:17;13.40;99.90
3055;DHT22;1537;52.018;8.542;2023-08-30T21:34:41;13.30;99.90
3055;DHT22;1537;52.018;8.542;2023-08-30T21:38:07;13.30;99.90
3055;DHT22;1537;52.018;8.542;2023-08-30T21:41:33;13.30;99.90
3055;DHT22;1537;52.018;8.542;2023-08-30T21:44:58;13.30;99.90
3055;DHT22;1537;52.018;8.542;2023-08-30T21:48:25;13.30;99.90
3055;DHT22;1537;52.018;8.542;2023-08-30T21:51:49;13.40;99.90
3055;DHT22;1537;52.018;8.542;2023-08-30T21:55:13;13.40;99.90
3055;DHT22;1537;52.018;8.542;2023-08-30T21:58:54;13.40;99.90
3055;DHT22;1537;52.018;8.542;2023-08-30T22:02:20;13.50;99.90
3055;DHT22;1537;52.018;8.542;2023-08-30T22:05:45;13.60;99.90
3055;DHT22;1537;52.018;8.542;2023-08-30T22:09:08;13.60;99.90
3055;DHT22;1537;52.018;8.542;2023-08-30T22:12:33;13.60;99.90
3055;DHT22;1537;52.018;8.542;2023-08-30T22:16:01;13.60;99.90
3055;DHT22;1537;52.018;8.542;2023-08-30T22:19:27;13.60;99.90
3055;DHT22;1537;52.018;8.542;2023-08-30T22:22:51;13.60;99.90
3055;DHT22;1537;52.018;8.542;2023-08-30T22:26:15;13.60;99.90